Time;durP1;ratioP1;P1;durP2;ratioP2;P2;SDS_P1;SDS_P2;PMS_P1;PMS_P2;Temp;Humidity;BMP_temperature;BMP_pressure;BME280_temperature;BME280_humidity;BME280_pressure;Samples;Min_cycle;Max_cycle;Signal;HPM_P1;HPM_P2
2024/01/27 00:01:39;;;;;;;10.23;1.00;;;4.10;99.90;;;;;;4213557;28;20435;-79
2024/01/27 00:03:42;;;;;;;6.93;1.70;;;4.10;99.90;;;;;;4212240;28;20471;-79
2024/01/27 00:05:44;;;;;;;12.33;1.50;;;4.10;99.90;;;;;;4211118;28;20483;-78
2024/01/27 00:07:46;;;;;;;8.83;1.27;;;4.10;99.90;;;;;;4212272;28;20961;-79
2024/01/27 00:09:47;;;;;;;3.70;0.80;;;4.10;99.90;;;;;;4191850;28;20543;-79
2024/01/27 00:11:49;;;;;;;4.73;1.07;;;4.10;99.90;;;;;;4208345;28;20472;-79
2024/01/27 00:13:50;;;;;;;5.97;1.10;;;4.00;99.90;;;;;;4213750;28;20740;-79
2024/01/27 00:15:54;;;;;;;6.13;1.77;;;4.00;99.90;;;;;;4208086;28;20453;-79
2024/01/27 00:17:56;;;;;;;8.63;1.53;;;4.00;99.90;;;;;;4212391;28;20549;-79
2024/01/27 00:19:59;;;;;;;6.43;1.00;;;4.10;99.90;;;;;;4213724;28;20483;-79
2024/01/27 00:22:02;;;;;;;7.53;1.30;;;4.10;99.90;;;;;;4214832;28;20490;-80
2024/01/27 00:24:04;;;;;;;8.13;1.50;;;4.00;99.90;;;;;;4211923;28;20905;-80
2024/01/27 00:26:05;;;;;;;10.83;1.43;;;4.00;99.90;;;;;;4213281;28;20940;-79
2024/01/27 00:28:07;;;;;;;5.20;1.20;;;4.10;99.90;;;;;;4210817;28;20460;-78
2024/01/27 00:30:11;;;;;;;10.23;1.57;;;4.10;99.90;;;;;;4210618;28;20214;-78
2024/01/27 00:32:13;;;;;;;8.00;1.17;;;4.10;99.90;;;;;;4214607;28;20455;-79
2024/01/27 00:34:15;;;;;;;7.60;1.10;;;4.30;99.90;;;;;;4210610;28;20456;-79
2024/01/27 00:36:18;;;;;;;8.43;2.00;;;4.10;99.90;;;;;;4211259;28;20498;-79
2024/01/27 00:38:20;;;;;;;6.67;1.30;;;4.20;99.90;;;;;;4211217;28;20977;-79
2024/01/27 00:40:22;;;;;;;5.83;1.33;;;4.10;99.90;;;;;;4212682;28;20468;-79
2024/01/27 00:42:24;;;;;;;5.97;1.33;;;4.10;99.90;;;;;;4211616;28;20449;-79
2024/01/27 00:44:26;;;;;;;6.20;1.57;;;4.00;99.90;;;;;;4209644;28;20541;-79
2024/01/27 00:46:28;;;;;;;8.43;2.10;;;4.10;99.90;;;;;;4195466;28;20529;-79
2024/01/27 00:48:30;;;;;;;7.00;1.30;;;4.10;99.90;;;;;;4189231;28;20504;-79
2024/01/27 00:50:32;;;;;;;8.27;1.20;;;4.10;99.90;;;;;;4214469;28;20815;-79
2024/01/27 00:52:35;;;;;;;9.57;1.30;;;4.10;99.90;;;;;;4197004;28;21052;-79
2024/01/27 00:54:37;;;;;;;6.97;1.30;;;4.10;99.90;;;;;;4212639;28;20894;-79
2024/01/27 00:56:38;;;;;;;11.63;1.57;;;4.10;99.90;;;;;;4210227;28;21044;-80
2024/01/27 00:58:40;;;;;;;10.90;1.30;;;4.10;99.90;;;;;;4202606;28;20515;-80
2024/01/27 01:00:41;;;;;;;6.30;2.07;;;4.00;99.90;;;;;;4195243;28;20447;-80
2024/01/27 01:02:43;;;;;;;9.47;1.40;;;4.50;99.90;;;;;;4194472;28;20554;-81
2024/01/27 01:04:45;;;;;;;8.87;1.77;;;4.10;99.90;;;;;;4211500;28;20190;-81
2024/01/27 01:06:47;;;;;;;13.50;2.03;;;4.00;99.90;;;;;;4195582;28;20816;-81
2024/01/27 01:08:50;;;;;;;11.30;1.57;;;4.00;99.90;;;;;;4212941;28;20480;-80
2024/01/27 01:10:52;;;;;;;10.10;1.50;;;4.00;99.90;;;;;;4195248;28;20507;-80
2024/01/27 01:12:57;;;;;;;11.57;2.00;;;4.00;99.90;;;;;;4210825;28;20437;-79
2024/01/27 01:14:59;;;;;;;10.43;1.40;;;3.90;99.90;;;;;;4194153;28;20460;-79
2024/01/27 01:17:01;;;;;;;10.97;1.70;;;4.00;99.90;;;;;;4211900;28;20458;-79
2024/01/27 01:19:02;;;;;;;12.97;1.70;;;3.90;99.90;;;;;;4215216;28;20534;-80
2024/01/27 01:21:04;;;;;;;8.77;1.83;;;3.90;99.90;;;;;;4214709;28;20461;-79
2024/01/27 01:23:05;;;;;;;10.37;1.90;;;4.00;99.90;;;;;;4212632;28;20488;-79
2024/01/27 01:25:09;;;;;;;6.07;1.10;;;4.00;99.90;;;;;;4213243;28;21222;-79
2024/01/27 01:27:11;;;;;;;7.30;1.47;;;4.00;99.90;;;;;;4212576;28;20269;-79
2024/01/27 01:29:13;;;;;;;9.60;1.40;;;4.00;99.90;;;;;;4210521;28;20555;-79
2024/01/27 01:31:14;;;;;;;7.87;1.60;;;4.00;99.90;;;;;;4213358;28;20453;-79
2024/01/27 01:33:16;;;;;;;12.47;1.63;;;3.90;99.90;;;;;;4196657;28;20482;-79
2024/01/27 01:35:17;;;;;;;9.60;1.70;;;3.90;99.90;;;;;;4213604;28;20198;-79
2024/01/27 01:37:19;;;;;;;17.37;1.53;;;4.10;99.90;;;;;;4192927;28;20484;-79
2024/01/27 01:39:21;;;;;;;7.70;1.47;;;4.00;99.90;;;;;;4213511;28;20592;-79
2024/01/27 01:41:24;;;;;;;9.33;1.90;;;3.90;99.90;;;;;;4213011;28;20481;-79
2024/01/27 01:43:26;;;;;;;10.43;1.83;;;3.90;99.90;;;;;;4216128;28;20485;-79
2024/01/27 01:45:27;;;;;;;9.60;1.70;;;3.90;99.90;;;;;;4209919;28;20452;-79
2024/01/27 01:47:29;;;;;;;12.33;2.23;;;3.90;99.90;;;;;;4209681;28;20429;-80
2024/01/27 01:49:31;;;;;;;13.70;1.87;;;3.90;99.90;;;;;;4207622;28;20352;-79
2024/01/27 01:51:32;;;;;;;13.93;1.77;;;3.90;99.90;;;;;;4194145;28;20456;-79
2024/01/27 01:53:34;;;;;;;12.87;1.93;;;3.90;99.90;;;;;;4214919;28;20466;-79
2024/01/27 01:55:37;;;;;;;14.73;1.70;;;3.90;99.90;;;;;;4212508;28;20212;-79
2024/01/27 01:57:41;;;;;;;10.67;1.80;;;3.80;99.90;;;;;;4211319;28;20487;-79
2024/01/27 01:59:43;;;;;;;16.40;1.50;;;3.80;99.90;;;;;;4209399;28;20577;-79
2024/01/27 02:01:44;;;;;;;21.13;2.10;;;3.80;99.90;;;;;;4212231;28;20822;-79
2024/01/27 02:03:53;;;;;;;13.30;2.00;;;3.80;99.90;;;;;;4212375;28;20476;-79
2024/01/27 02:05:55;;;;;;;8.37;1.40;;;3.70;99.90;;;;;;4209852;28;20297;-79
2024/01/27 02:08:00;;;;;;;12.67;1.67;;;3.70;99.90;;;;;;4212533;28;20547;-79
2024/01/27 02:10:02;;;;;;;10.50;1.73;;;3.70;99.90;;;;;;4212041;28;20471;-79
2024/01/27 02:12:05;;;;;;;7.30;1.30;;;3.60;99.90;;;;;;4214990;28;20448;-80
2024/01/27 02:14:09;;;;;;;10.83;1.63;;;3.60;99.90;;;;;;4204812;28;20452;-79
2024/01/27 02:16:11;;;;;;;13.07;1.80;;;3.60;99.90;;;;;;4212134;28;21048;-79
2024/01/27 02:18:12;;;;;;;11.77;2.30;;;3.60;99.90;;;;;;4189365;28;20465;-79
2024/01/27 02:20:14;;;;;;;8.63;1.80;;;3.60;99.90;;;;;;4210600;28;20453;-77
2024/01/27 02:22:16;;;;;;;13.47;1.93;;;3.60;99.90;;;;;;4213492;28;20444;-79
2024/01/27 02:24:19;;;;;;;11.90;1.57;;;3.60;99.90;;;;;;4212368;28;20891;-79
2024/01/27 02:26:21;;;;;;;12.60;1.73;;;3.50;99.90;;;;;;4213104;28;21054;-79
2024/01/27 02:28:25;;;;;;;18.97;3.00;;;3.50;99.90;;;;;;4207224;28;20563;-79
2024/01/27 02:30:26;;;;;;;15.00;1.87;;;3.50;99.90;;;;;;4193081;28;20533;-79
2024/01/27 02:32:28;;;;;;;8.47;1.50;;;3.10;99.90;;;;;;4210730;28;20502;-79
2024/01/27 02:34:30;;;;;;;15.00;1.70;;;3.40;99.90;;;;;;4193080;28;20454;-79
2024/01/27 02:36:32;;;;;;;12.47;1.87;;;3.40;99.90;;;;;;4211825;28;20535;-79
2024/01/27 02:38:34;;;;;;;11.87;1.70;;;3.30;99.90;;;;;;4213175;28;20570;-79
2024/01/27 02:40:37;;;;;;;8.27;1.70;;;3.30;99.90;;;;;;4208113;28;20551;-79
2024/01/27 02:42:41;;;;;;;12.23;1.70;;;3.30;99.90;;;;;;4191118;28;20452;-79
2024/01/27 02:44:43;;;;;;;12.13;1.80;;;3.30;99.90;;;;;;4210686;28;20484;-79
2024/01/27 02:46:45;;;;;;;9.70;1.73;;;3.20;99.90;;;;;;4191837;28;20854;-79
2024/01/27 02:48:46;;;;;;;7.03;1.40;;;3.20;99.90;;;;;;4202848;28;20554;-79
2024/01/27 02:50:48;;;;;;;9.50;1.50;;;3.20;99.90;;;;;;4206693;28;20796;-79
2024/01/27 02:52:50;;;;;;;8.97;1.57;;;3.20;99.90;;;;;;4211189;28;20478;-79
2024/01/27 02:54:52;;;;;;;10.10;1.60;;;3.20;99.90;;;;;;4209139;28;20494;-79
2024/01/27 02:56:55;;;;;;;13.73;1.60;;;3.20;99.90;;;;;;4206408;28;20466;-79
2024/01/27 02:58:57;;;;;;;10.57;1.97;;;3.20;99.90;;;;;;4210521;28;20476;-79
2024/01/27 03:00:59;;;;;;;12.77;1.30;;;3.20;99.90;;;;;;4205294;28;20496;-79
2024/01/27 03:03:01;;;;;;;9.37;1.80;;;3.20;99.90;;;;;;4203374;28;20484;-79
2024/01/27 03:05:03;;;;;;;7.53;1.70;;;3.30;99.90;;;;;;4208118;28;20551;-79
2024/01/27 03:07:05;;;;;;;12.80;1.83;;;3.20;99.90;;;;;;4186358;28;20536;-79
2024/01/27 03:09:07;;;;;;;13.47;1.60;;;3.20;99.90;;;;;;4208052;28;20481;-79
2024/01/27 03:11:11;;;;;;;10.30;1.67;;;3.20;99.90;;;;;;4211971;28;20493;-79
2024/01/27 03:13:14;;;;;;;13.07;1.70;;;3.20;99.90;;;;;;4212810;28;20506;-79
2024/01/27 03:15:16;;;;;;;10.13;1.80;;;3.20;99.90;;;;;;4209608;28;20452;-79
2024/01/27 03:17:18;;;;;;;18.07;1.97;;;3.20;99.90;;;;;;4208441;28;20497;-79
2024/01/27 03:19:20;;;;;;;8.40;1.70;;;3.20;99.90;;;;;;4210873;28;20471;-79
2024/01/27 03:21:22;;;;;;;14.47;2.00;;;3.30;99.90;;;;;;4197004;28;20511;-79
2024/01/27 03:23:23;;;;;;;12.57;2.40;;;3.30;99.90;;;;;;4192513;28;20473;-79
2024/01/27 03:25:25;;;;;;;13.00;1.50;;;3.20;99.90;;;;;;4214680;28;20438;-79
2024/01/27 03:27:27;;;;;;;13.20;1.77;;;3.20;99.90;;;;;;4216824;28;20630;-79
2024/01/27 03:29:29;;;;;;;11.20;1.70;;;3.20;99.90;;;;;;4210396;28;20498;-79
2024/01/27 03:31:32;;;;;;;11.37;1.60;;;3.20;99.90;;;;;;4196391;28;20459;-79
2024/01/27 03:33:34;;;;;;;9.13;1.63;;;3.20;99.90;;;;;;4211703;28;20450;-79
2024/01/27 03:35:35;;;;;;;6.77;1.60;;;3.20;99.90;;;;;;4192421;28;20488;-79
2024/01/27 03:37:37;;;;;;;8.40;1.83;;;3.10;99.90;;;;;;4209127;28;20959;-79
2024/01/27 03:39:42;;;;;;;11.13;1.50;;;3.10;99.90;;;;;;4213438;28;20506;-79
2024/01/27 03:41:47;;;;;;;10.50;1.80;;;3.10;99.90;;;;;;4208284;28;20983;-79
2024/01/27 03:43:49;;;;;;;14.27;1.40;;;3.10;99.90;;;;;;4192495;28;20542;-79
2024/01/27 03:45:52;;;;;;;11.37;2.30;;;3.00;99.90;;;;;;4210024;28;20513;-79
2024/01/27 03:47:54;;;;;;;11.63;1.83;;;3.00;99.90;;;;;;4213528;28;21421;-79
2024/01/27 03:49:56;;;;;;;7.67;1.57;;;2.90;99.90;;;;;;4195437;28;20555;-79
2024/01/27 03:51:57;;;;;;;8.60;1.50;;;2.90;99.90;;;;;;4211591;28;20471;-79
2024/01/27 03:53:59;;;;;;;14.07;1.90;;;2.90;99.90;;;;;;4196387;28;20441;-79
2024/01/27 03:56:04;;;;;;;10.80;1.87;;;2.90;99.90;;;;;;4218247;28;20818;-79
2024/01/27 03:58:05;;;;;;;13.77;1.77;;;2.80;99.90;;;;;;4217242;28;20481;-79
2024/01/27 04:00:07;;;;;;;9.03;1.50;;;2.80;99.90;;;;;;4213949;28;20444;-79
2024/01/27 04:02:14;;;;;;;15.90;1.93;;;2.80;99.90;;;;;;4213877;28;20522;-79
2024/01/27 04:04:16;;;;;;;7.20;1.30;;;3.20;99.90;;;;;;4192594;28;20554;-79
2024/01/27 04:06:18;;;;;;;13.83;1.70;;;2.80;99.90;;;;;;4214171;28;20841;-79
2024/01/27 04:08:19;;;;;;;12.70;1.70;;;2.90;99.90;;;;;;4194728;28;20554;-79
2024/01/27 04:10:21;;;;;;;11.07;1.73;;;2.80;99.90;;;;;;4212559;28;20957;-79
2024/01/27 04:12:23;;;;;;;5.97;1.43;;;2.80;99.90;;;;;;4194593;28;20532;-79
2024/01/27 04:14:24;;;;;;;11.23;2.17;;;2.80;99.90;;;;;;4211130;28;20444;-79
2024/01/27 04:16:26;;;;;;;14.50;1.63;;;2.80;99.90;;;;;;4197279;28;20484;-79
2024/01/27 04:18:29;;;;;;;10.97;1.37;;;2.80;99.90;;;;;;4195688;28;20559;-79
2024/01/27 04:20:31;;;;;;;16.50;2.07;;;2.80;99.90;;;;;;4199508;28;20448;-78
2024/01/27 04:22:34;;;;;;;10.77;1.67;;;2.90;99.90;;;;;;4215704;28;20478;-79
2024/01/27 04:24:36;;;;;;;8.93;1.40;;;2.80;99.90;;;;;;4207181;28;20558;-78
2024/01/27 04:26:37;;;;;;;6.40;1.47;;;2.80;99.90;;;;;;4195906;28;20531;-78
2024/01/27 04:28:38;;;;;;;15.30;1.67;;;2.80;99.90;;;;;;4195751;28;20471;-79
2024/01/27 04:30:40;;;;;;;9.40;1.57;;;2.90;99.90;;;;;;4209729;28;20953;-78
2024/01/27 04:32:42;;;;;;;13.40;1.77;;;2.90;99.90;;;;;;4212192;28;20201;-78
2024/01/27 04:34:45;;;;;;;10.70;1.33;;;2.80;99.90;;;;;;4215440;28;20475;-78
2024/01/27 04:36:47;;;;;;;16.23;2.20;;;2.80;99.90;;;;;;4207487;28;20484;-78
2024/01/27 04:38:49;;;;;;;7.07;1.80;;;2.80;99.90;;;;;;4207284;28;20562;-78
2024/01/27 04:40:53;;;;;;;17.40;1.57;;;2.80;99.90;;;;;;4212433;28;20939;-79
2024/01/27 04:42:55;;;;;;;11.87;2.13;;;2.80;99.90;;;;;;4212594;28;20470;-78
2024/01/27 04:44:55;;;;;;;12.87;2.27;;;2.80;99.90;;;;;;4216641;28;20481;-78
2024/01/27 04:46:57;;;;;;;15.43;2.00;;;2.80;99.90;;;;;;4195639;28;20476;-79
2024/01/27 04:48:59;;;;;;;10.37;1.70;;;2.80;99.90;;;;;;4210653;28;20730;-79
2024/01/27 04:51:02;;;;;;;11.80;1.90;;;2.90;99.90;;;;;;4215249;28;20534;-79
2024/01/27 04:53:05;;;;;;;14.00;1.90;;;2.90;99.90;;;;;;4212953;28;20443;-78
2024/01/27 04:55:07;;;;;;;8.50;2.10;;;2.90;99.90;;;;;;4193975;28;20444;-78
2024/01/27 04:57:08;;;;;;;12.47;1.90;;;2.90;99.90;;;;;;4212406;28;20825;-78
2024/01/27 04:59:10;;;;;;;13.50;2.43;;;2.90;99.90;;;;;;4214618;28;20455;-78
2024/01/27 05:01:12;;;;;;;13.30;1.43;;;2.90;99.90;;;;;;4194402;28;20509;-79
2024/01/27 05:03:17;;;;;;;8.53;2.07;;;2.80;99.90;;;;;;4213169;28;20465;-79
2024/01/27 05:05:19;;;;;;;11.17;2.00;;;2.90;99.90;;;;;;4211686;28;20490;-79
2024/01/27 05:07:22;;;;;;;12.43;1.73;;;2.80;99.90;;;;;;4212145;28;20443;-79
2024/01/27 05:09:24;;;;;;;8.37;1.63;;;2.80;99.90;;;;;;4210200;28;20471;-79
2024/01/27 05:11:26;;;;;;;14.53;1.80;;;2.80;99.90;;;;;;4212567;28;20989;-79
2024/01/27 05:13:28;;;;;;;11.73;2.23;;;2.80;99.90;;;;;;4211823;28;20443;-79
2024/01/27 05:15:30;;;;;;;11.83;1.80;;;2.90;99.90;;;;;;4212937;28;20447;-77
2024/01/27 05:17:32;;;;;;;15.27;2.43;;;2.90;99.90;;;;;;4193528;28;20465;-79
2024/01/27 05:19:33;;;;;;;16.30;2.47;;;2.80;99.90;;;;;;4212375;28;21021;-79
2024/01/27 05:21:35;;;;;;;16.63;1.80;;;2.80;99.90;;;;;;4195039;28;20436;-79
2024/01/27 05:23:38;;;;;;;17.03;1.73;;;2.80;99.90;;;;;;4191214;28;20389;-79
2024/01/27 05:25:40;;;;;;;9.77;1.67;;;2.90;99.90;;;;;;4212201;28;20533;-79
2024/01/27 05:27:42;;;;;;;9.33;1.63;;;2.90;99.90;;;;;;4193681;28;20465;-79
2024/01/27 05:29:44;;;;;;;15.80;2.10;;;2.90;99.90;;;;;;4217833;28;20495;-79
2024/01/27 05:31:46;;;;;;;11.60;2.30;;;2.90;99.90;;;;;;4214122;28;20962;-78
2024/01/27 05:33:48;;;;;;;16.63;2.07;;;2.90;99.90;;;;;;4215964;28;20447;-78
2024/01/27 05:35:50;;;;;;;8.33;1.70;;;3.00;99.90;;;;;;4191796;28;20527;-79
2024/01/27 05:37:52;;;;;;;10.77;1.90;;;2.90;99.90;;;;;;4196775;28;21014;-79
2024/01/27 05:39:55;;;;;;;8.77;1.50;;;3.00;99.90;;;;;;4218877;28;20447;-79
2024/01/27 05:41:57;;;;;;;17.40;2.03;;;3.10;99.90;;;;;;4215665;28;20938;-79
2024/01/27 05:43:59;;;;;;;12.17;1.60;;;3.10;99.90;;;;;;4212417;28;20911;-79
2024/01/27 05:46:01;;;;;;;11.90;2.13;;;3.10;99.90;;;;;;4212155;28;20816;-78
2024/01/27 05:48:03;;;;;;;8.40;1.77;;;3.20;99.90;;;;;;4213169;28;20452;-78
2024/01/27 05:50:08;;;;;;;14.43;2.37;;;3.20;99.90;;;;;;4209579;28;20542;-78
2024/01/27 05:52:10;;;;;;;12.60;1.57;;;3.20;99.90;;;;;;4210354;28;20538;-78
2024/01/27 05:54:14;;;;;;;15.57;2.30;;;3.20;99.90;;;;;;4213805;28;20440;-78
2024/01/27 05:56:19;;;;;;;14.80;1.73;;;3.20;99.90;;;;;;4194641;28;20453;-78
2024/01/27 05:58:21;;;;;;;7.13;1.90;;;3.60;99.90;;;;;;4212571;28;20483;-79
2024/01/27 06:00:23;;;;;;;11.50;1.70;;;3.50;99.90;;;;;;4214362;28;21119;-78
2024/01/27 06:02:25;;;;;;;11.57;1.70;;;3.20;99.90;;;;;;4216666;28;20483;-79
2024/01/27 06:04:27;;;;;;;14.83;1.87;;;3.20;99.90;;;;;;4214650;28;20477;-78
2024/01/27 06:06:29;;;;;;;18.30;2.00;;;3.20;99.90;;;;;;4210910;28;20467;-78
2024/01/27 06:08:31;;;;;;;14.80;2.07;;;3.20;99.90;;;;;;4213915;28;20533;-78
2024/01/27 06:10:32;;;;;;;12.37;1.87;;;3.20;99.90;;;;;;4213955;28;20463;-78
2024/01/27 06:12:36;;;;;;;9.80;1.93;;;3.20;99.90;;;;;;4218499;28;20474;-78
2024/01/27 06:14:38;;;;;;;8.03;1.57;;;3.30;99.90;;;;;;4213916;28;20451;-78
2024/01/27 06:16:40;;;;;;;19.53;2.37;;;3.80;99.90;;;;;;4215106;28;20451;-78
2024/01/27 06:18:42;;;;;;;9.03;2.10;;;3.30;99.90;;;;;;4211541;28;20487;-78
2024/01/27 06:20:51;;;;;;;6.93;2.10;;;3.30;99.90;;;;;;4212469;28;20443;-78
2024/01/27 06:22:52;;;;;;;21.07;3.27;;;3.30;99.90;;;;;;4213119;28;20439;-80
2024/01/27 06:24:54;;;;;;;19.07;3.20;;;3.30;99.90;;;;;;4216483;28;20475;-78
2024/01/27 06:26:56;;;;;;;18.90;4.03;;;3.30;99.90;;;;;;4209737;28;20444;-78
2024/01/27 06:29:00;;;;;;;19.10;3.50;;;3.30;99.90;;;;;;4209346;28;20477;-79
2024/01/27 06:31:02;;;;;;;19.03;4.20;;;3.40;99.90;;;;;;4209294;28;20866;-79
2024/01/27 06:33:04;;;;;;;23.43;4.63;;;3.50;99.90;;;;;;4197087;28;20440;-78
2024/01/27 06:35:07;;;;;;;22.37;6.13;;;3.40;99.90;;;;;;4210137;28;20473;-79
2024/01/27 06:37:09;;;;;;;19.13;4.30;;;3.40;99.90;;;;;;4210278;28;20977;-78
2024/01/27 06:39:10;;;;;;;19.33;3.10;;;3.40;99.90;;;;;;4194947;28;20558;-78
2024/01/27 06:41:12;;;;;;;10.77;2.60;;;3.30;99.90;;;;;;4213457;28;20951;-78
2024/01/27 06:43:17;;;;;;;11.47;2.43;;;3.30;99.90;;;;;;4210932;28;20479;-78
2024/01/27 06:45:20;;;;;;;13.50;2.00;;;3.20;99.90;;;;;;4209877;28;20487;-78
2024/01/27 06:47:21;;;;;;;9.13;2.67;;;3.30;99.90;;;;;;4211456;28;20870;-78
2024/01/27 06:49:23;;;;;;;8.80;2.00;;;4.10;99.90;;;;;;4211729;28;20484;-78
2024/01/27 06:51:25;;;;;;;10.47;2.20;;;3.20;99.90;;;;;;4209723;28;20255;-79
2024/01/27 06:53:26;;;;;;;14.23;2.10;;;3.10;99.90;;;;;;4197496;28;20445;-80
2024/01/27 06:55:28;;;;;;;18.53;2.90;;;3.10;99.90;;;;;;4216141;28;20443;-81
2024/01/27 06:57:29;;;;;;;16.27;3.30;;;3.10;99.90;;;;;;4221629;28;20217;-78
2024/01/27 06:59:33;;;;;;;8.93;1.57;;;3.10;99.90;;;;;;4212172;28;20462;-79
2024/01/27 07:01:35;;;;;;;13.10;1.93;;;3.10;99.90;;;;;;4198435;28;20213;-79
2024/01/27 07:03:39;;;;;;;11.43;2.10;;;3.10;99.90;;;;;;4211456;28;20477;-79
2024/01/27 07:05:41;;;;;;;19.10;2.50;;;3.10;99.90;;;;;;4217278;28;20501;-79
2024/01/27 07:07:43;;;;;;;14.53;2.57;;;3.10;99.90;;;;;;4211269;28;20452;-78
2024/01/27 07:09:45;;;;;;;12.90;2.27;;;3.10;99.90;;;;;;4216325;28;20531;-79
2024/01/27 07:11:46;;;;;;;15.50;2.80;;;3.20;99.90;;;;;;4216629;28;20890;-79
2024/01/27 07:13:56;;;;;;;8.83;2.33;;;3.10;99.90;;;;;;4218598;28;20432;-79
2024/01/27 07:15:58;;;;;;;15.90;1.83;;;3.20;99.90;;;;;;4220111;28;20457;-79
2024/01/27 07:18:02;;;;;;;14.87;2.87;;;3.20;99.90;;;;;;4217821;28;21049;-78
2024/01/27 07:20:05;;;;;;;18.17;2.37;;;3.20;99.90;;;;;;4202439;28;20456;-78
2024/01/27 07:22:07;;;;;;;12.00;2.17;;;3.20;99.90;;;;;;4221871;28;20536;-80
2024/01/27 07:24:09;;;;;;;11.73;2.00;;;3.20;99.90;;;;;;4221520;28;20447;-79
2024/01/27 07:26:12;;;;;;;14.90;2.67;;;3.20;99.90;;;;;;4203782;28;20481;-79
2024/01/27 07:28:15;;;;;;;17.60;2.43;;;3.20;99.90;;;;;;4214762;28;20471;-79
2024/01/27 07:30:17;;;;;;;12.97;2.13;;;3.20;99.90;;;;;;4213581;28;20889;-79
2024/01/27 07:32:19;;;;;;;14.83;2.83;;;3.20;99.90;;;;;;4197387;28;20448;-79
2024/01/27 07:34:23;;;;;;;14.57;2.87;;;3.20;99.90;;;;;;4210933;28;20898;-79
2024/01/27 07:36:25;;;;;;;17.70;3.07;;;3.30;99.90;;;;;;4213756;28;20902;-80
2024/01/27 07:38:27;;;;;;;14.97;3.30;;;3.20;99.90;;;;;;4213242;28;20863;-79
2024/01/27 07:40:29;;;;;;;12.00;2.40;;;3.30;99.90;;;;;;4216531;28;20490;-80
2024/01/27 07:42:32;;;;;;;19.03;3.03;;;3.30;99.90;;;;;;4211067;28;20463;-79
2024/01/27 07:44:33;;;;;;;11.67;2.30;;;3.30;99.90;;;;;;4213671;28;20544;-79
2024/01/27 07:46:35;;;;;;;15.03;2.23;;;3.30;99.90;;;;;;4215009;28;20482;-80
2024/01/27 07:48:37;;;;;;;14.77;2.90;;;3.30;99.90;;;;;;4213023;28;20498;-78
2024/01/27 07:50:40;;;;;;;22.53;2.87;;;3.30;99.90;;;;;;4211487;28;20523;-77
2024/01/27 07:52:42;;;;;;;12.70;2.10;;;3.40;99.90;;;;;;4210794;28;20462;-77
2024/01/27 07:54:43;;;;;;;14.67;2.00;;;3.40;99.90;;;;;;4209461;28;20469;-78
2024/01/27 07:56:45;;;;;;;17.57;2.97;;;3.40;99.90;;;;;;4193412;28;20444;-78
2024/01/27 07:58:47;;;;;;;19.67;2.50;;;3.50;99.90;;;;;;4209894;28;20243;-77
2024/01/27 08:00:49;;;;;;;13.77;2.67;;;3.50;99.90;;;;;;4212000;28;20442;-77
2024/01/27 08:02:51;;;;;;;14.53;2.50;;;3.60;99.90;;;;;;4210692;28;20543;-78
2024/01/27 08:04:53;;;;;;;13.53;2.00;;;3.60;99.90;;;;;;4189436;28;20469;-77
2024/01/27 08:06:56;;;;;;;11.87;2.80;;;3.50;99.90;;;;;;4190749;28;20845;-78
2024/01/27 08:09:00;;;;;;;18.40;2.23;;;3.50;99.90;;;;;;4212102;28;20512;-76
2024/01/27 08:11:02;;;;;;;13.57;2.47;;;3.50;99.90;;;;;;4211698;28;20501;-77
2024/01/27 08:13:04;;;;;;;13.27;2.20;;;3.50;99.90;;;;;;4210955;28;20934;-76
2024/01/27 08:15:07;;;;;;;18.03;2.30;;;3.40;99.90;;;;;;4210968;28;20796;-76
2024/01/27 08:17:09;;;;;;;13.43;2.73;;;3.40;99.90;;;;;;4210940;28;21061;-76
2024/01/27 08:19:10;;;;;;;11.80;2.20;;;3.40;99.90;;;;;;4199164;28;20548;-79
2024/01/27 08:21:12;;;;;;;12.93;2.30;;;3.40;99.90;;;;;;4213858;28;20443;-79
2024/01/27 08:23:17;;;;;;;10.10;2.07;;;3.40;99.90;;;;;;4215590;28;20201;-78
2024/01/27 08:25:19;;;;;;;11.80;2.00;;;3.40;99.90;;;;;;4214638;28;20566;-83
2024/01/27 08:27:21;;;;;;;14.30;2.93;;;3.30;99.90;;;;;;4215252;28;20447;-79
2024/01/27 08:29:23;;;;;;;12.80;2.27;;;3.30;99.90;;;;;;4197482;28;20529;-83
2024/01/27 08:31:24;;;;;;;19.60;2.60;;;3.00;99.90;;;;;;4212715;28;20463;-79
2024/01/27 08:33:25;;;;;;;15.50;3.00;;;3.30;99.90;;;;;;4209646;28;21963;-76
2024/01/27 08:35:27;;;;;;;12.37;2.50;;;3.60;99.90;;;;;;4208644;28;20648;-83
2024/01/27 08:37:38;;;;;;;16.43;2.77;;;3.30;99.90;;;;;;4212687;28;20464;-78
2024/01/27 08:39:41;;;;;;;11.80;2.47;;;3.30;99.90;;;;;;4213756;28;20553;-78
2024/01/27 08:41:43;;;;;;;18.00;3.03;;;3.30;99.90;;;;;;4218566;28;20491;-78
2024/01/27 08:43:44;;;;;;;11.77;2.77;;;3.50;99.90;;;;;;4210072;28;20451;-79
2024/01/27 08:45:46;;;;;;;16.13;2.50;;;3.40;99.90;;;;;;4210376;28;20510;-80
2024/01/27 08:47:48;;;;;;;10.87;2.40;;;3.40;99.90;;;;;;4210561;28;20205;-82
2024/01/27 08:49:50;;;;;;;16.37;3.63;;;3.40;99.90;;;;;;4207474;28;21005;-79
2024/01/27 08:51:52;;;;;;;23.20;3.13;;;3.50;99.90;;;;;;4210265;28;20451;-81
2024/01/27 08:53:54;;;;;;;8.67;2.73;;;3.50;99.90;;;;;;4212952;28;20557;-80
2024/01/27 08:55:57;;;;;;;17.60;3.17;;;3.60;99.90;;;;;;4209045;28;20452;-78
2024/01/27 08:57:59;;;;;;;12.43;2.70;;;3.60;99.90;;;;;;4211629;28;20458;-77
2024/01/27 09:00:00;;;;;;;13.70;2.93;;;3.60;99.90;;;;;;4211188;28;20453;-78
2024/01/27 09:02:02;;;;;;;12.90;2.30;;;3.70;99.90;;;;;;4211429;28;20482;-78
2024/01/27 09:04:19;;;;;;;12.30;3.03;;;3.80;99.90;;;;;;4194841;28;20202;-78
2024/01/27 09:06:24;;;;;;;18.53;3.70;;;3.70;99.90;;;;;;4210767;28;20516;-78
2024/01/27 09:08:26;;;;;;;22.27;2.93;;;3.80;99.90;;;;;;4210077;28;20499;-78
2024/01/27 09:10:28;;;;;;;18.23;3.03;;;3.90;99.90;;;;;;4195018;28;20453;-78
2024/01/27 09:12:32;;;;;;;16.93;3.10;;;3.90;99.90;;;;;;4212535;28;21117;-78
2024/01/27 09:14:34;;;;;;;14.33;3.80;;;3.90;99.90;;;;;;4212860;28;20445;-78
2024/01/27 09:16:36;;;;;;;12.37;3.27;;;3.90;99.90;;;;;;4211637;28;20498;-79
2024/01/27 09:18:38;;;;;;;14.43;3.30;;;3.90;99.90;;;;;;4210418;28;20471;-79
2024/01/27 09:20:40;;;;;;;19.23;3.93;;;3.90;99.90;;;;;;4212086;28;20499;-78
2024/01/27 09:22:42;;;;;;;17.07;2.90;;;4.00;99.90;;;;;;4212405;28;20455;-76
2024/01/27 09:24:44;;;;;;;19.60;3.30;;;4.10;99.90;;;;;;4192986;28;20452;-78
2024/01/27 09:26:46;;;;;;;13.10;3.03;;;4.10;99.90;;;;;;4209260;28;20483;-77
2024/01/27 09:28:54;;;;;;;20.50;3.70;;;4.10;99.90;;;;;;4208817;28;20534;-77
2024/01/27 09:30:55;;;;;;;31.07;3.47;;;4.10;99.90;;;;;;4209204;28;20459;-77
2024/01/27 09:32:57;;;;;;;12.70;3.27;;;4.10;99.90;;;;;;4210932;28;20468;-78
2024/01/27 09:34:58;;;;;;;12.07;2.97;;;4.20;99.90;;;;;;4209450;28;20469;-77
2024/01/27 09:37:00;;;;;;;14.30;3.40;;;4.20;99.90;;;;;;4193022;28;20430;-78
2024/01/27 09:39:02;;;;;;;11.77;3.33;;;4.20;99.90;;;;;;4210756;28;20689;-78
2024/01/27 09:41:04;;;;;;;14.80;3.60;;;4.30;99.90;;;;;;4210523;28;20442;-78
2024/01/27 09:43:06;;;;;;;15.30;3.57;;;4.30;99.90;;;;;;4210272;28;20452;-79
2024/01/27 09:45:10;;;;;;;18.03;3.20;;;4.40;99.90;;;;;;4211737;28;20448;-79
2024/01/27 09:47:12;;;;;;;20.30;3.50;;;4.40;99.90;;;;;;4212161;28;21211;-80
2024/01/27 09:49:15;;;;;;;13.43;3.30;;;4.40;99.90;;;;;;4208830;28;20874;-80
2024/01/27 09:51:17;;;;;;;17.67;3.50;;;4.40;99.90;;;;;;4210894;28;21007;-79
2024/01/27 09:53:18;;;;;;;20.40;3.20;;;4.40;99.90;;;;;;4191030;28;20456;-79
2024/01/27 09:55:22;;;;;;;20.63;3.60;;;4.50;99.90;;;;;;4208348;28;20510;-79
2024/01/27 09:57:27;;;;;;;17.90;3.90;;;4.50;99.90;;;;;;4193703;28;20447;-79
2024/01/27 09:59:29;;;;;;;19.37;3.33;;;4.60;99.90;;;;;;4193073;28;20544;-80
2024/01/27 10:01:34;;;;;;;20.20;3.80;;;4.50;99.90;;;;;;4211832;28;20873;-78
2024/01/27 10:03:37;;;;;;;15.13;3.43;;;4.60;99.90;;;;;;4193941;28;20480;-79
2024/01/27 10:05:39;;;;;;;12.93;3.40;;;4.70;99.90;;;;;;4195846;28;20494;-80
2024/01/27 10:07:41;;;;;;;20.73;4.37;;;4.70;99.90;;;;;;4211021;28;20468;-79
2024/01/27 10:09:43;;;;;;;21.63;4.47;;;4.70;99.90;;;;;;4194198;28;20455;-79
2024/01/27 10:11:48;;;;;;;13.90;3.73;;;4.70;99.90;;;;;;4193546;28;20446;-79
2024/01/27 10:13:57;;;;;;;19.47;4.10;;;4.80;99.90;;;;;;4208032;28;20446;-78
2024/01/27 10:16:03;;;;;;;9.77;3.53;;;4.90;99.90;;;;;;4193891;28;21302;-79
2024/01/27 10:18:12;;;;;;;13.77;3.60;;;4.90;99.90;;;;;;4211424;28;20904;-78
2024/01/27 10:20:15;;;;;;;13.43;4.27;;;5.00;99.90;;;;;;4211778;28;20446;-79
2024/01/27 10:22:17;;;;;;;21.53;3.87;;;5.10;99.90;;;;;;4211270;28;20997;-79
2024/01/27 10:24:20;;;;;;;21.27;3.20;;;5.00;99.90;;;;;;4189339;28;20454;-79
2024/01/27 10:26:22;;;;;;;18.80;3.80;;;5.10;99.90;;;;;;4210083;28;20498;-79
2024/01/27 10:28:27;;;;;;;20.77;3.60;;;5.10;99.90;;;;;;4209837;28;20508;-79
2024/01/27 10:30:29;;;;;;;16.63;4.60;;;5.10;99.90;;;;;;4191940;28;20552;-80
2024/01/27 10:32:31;;;;;;;14.57;4.03;;;5.10;99.90;;;;;;4204439;28;21066;-78
2024/01/27 10:34:36;;;;;;;19.37;3.63;;;5.10;99.90;;;;;;4192451;28;20461;-79
2024/01/27 10:36:41;;;;;;;14.47;3.47;;;5.20;99.90;;;;;;4195913;28;20447;-79
2024/01/27 10:38:42;;;;;;;16.20;4.00;;;5.30;99.90;;;;;;4210218;28;20518;-81
2024/01/27 10:40:45;;;;;;;18.43;4.20;;;5.30;99.90;;;;;;4214072;28;20478;-78